Discovery — WDI4277 — position and weather

sailwx.info

Track history (hours):
 
Tides and Currents Weather Stations Pressure Air Temp Water Temp Dewpoint Dewpoint Depression Visibility Wind Speed Wind Dir Waves Ship Positions

Discovery

Owner: Central Boat Rentals, Inc, Morgan City, LA. More information available from US FCC via Universal Licensing System and Coast Guard Vessel Documentation Center.

Last reported at 2018-Apr-22 01:34 UTC. Time now 2018-Apr-27 02:48 UTC.
Position N 29°34' W 090°57'.

Length 17 m; draft 2 m.

Type: Tug. MMSI: 367697020.

Date/timePositionNaut miles runAvg speedWind from/ knotsBaromVisibWave heightAir tempDewpointWater temp
2018-Apr-22 01:34N 29°34' W 090°57'1 5.6
2018-Apr-22 01:28N 29°34' W 090°56'3 5.5
2018-Apr-22 00:54N 29°32' W 090°53'2 5.3
2018-Apr-22 00:29N 29°32' W 090°50'3 5.5
2018-Apr-22 00:00N 29°32' W 090°47'2 4.7
2018-Apr-21 23:30N 29°33' W 090°45'2 4.0
2018-Apr-21 23:00N 29°34' W 090°43'2 4.4
2018-Apr-21 22:30N 29°32' W 090°42'3 5.8
2018-Apr-21 22:00N 29°29' W 090°43'3 5.8
2018-Apr-21 21:30N 29°26' W 090°43'2 0.1
2018-Apr-21 03:08N 29°25' W 090°44'1 6.9
2018-Apr-21 03:00N 29°26' W 090°43'4 7.1
2018-Apr-21 02:30N 29°29' W 090°43'3 6.9
2018-Apr-21 02:00N 29°32' W 090°42'2 3.9
2018-Apr-21 01:30N 29°34' W 090°44'3 5.6
2018-Apr-21 01:00N 29°32' W 090°46'4 7.3
2018-Apr-21 00:30N 29°32' W 090°51'6 0.3
2018-Apr-20 01:50N 29°34' W 090°57'6 6.2
2018-Apr-20 00:55N 29°32' W 090°51'3 6.2
2018-Apr-20 00:30N 29°32' W 090°48'3 5.3
2018-Apr-20 00:00N 29°33' W 090°45'3 3.6
2018-Apr-19 23:19N 29°33' W 090°42'2 6.0
2018-Apr-19 23:00N 29°31' W 090°43'3 6.0
2018-Apr-19 22:30N 29°28' W 090°43'9 0.6
2018-Apr-19 06:38N 29°19' W 090°43'6 6.3
2018-Apr-19 05:38N 29°25' W 090°43'1 6.3
2018-Apr-19 05:30N 29°26' W 090°43'4 6.2
2018-Apr-19 04:56N 29°30' W 090°43'3 6.2
2018-Apr-19 04:30N 29°32' W 090°42'2 3.9
2018-Apr-19 04:00N 29°34' W 090°44'3 5.1
2018-Apr-19 03:30N 29°32' W 090°46'3 6.1
2018-Apr-19 02:59N 29°32' W 090°49'  
2018-Apr-15 05:28N 29°56' W 093°01'3 6.7
2018-Apr-15 05:00N 29°56' W 093°05'3 6.6
2018-Apr-15 04:30N 29°56' W 093°09'3 6.2
2018-Apr-15 04:00N 29°58' W 093°11'3 6.5
2018-Apr-15 03:30N 30°01' W 093°14'2 4.0
2018-Apr-15 03:00N 30°02' W 093°15'3 5.3
2018-Apr-15 02:30N 30°05' W 093°17'2 4.0
2018-Apr-15 02:00N 30°06' W 093°18'0 0.9
2018-Apr-15 01:30N 30°06' W 093°19'3 5.3
2018-Apr-15 01:00N 30°04' W 093°20'2 4.3
2018-Apr-15 00:30N 30°01' W 093°20'3 6.0
2018-Apr-15 00:00N 29°58' W 093°20'3 6.1
2018-Apr-14 23:30N 29°55' W 093°20'3 6.0
2018-Apr-14 23:00N 29°52' W 093°21'2 1.3
2018-Apr-14 21:12N 29°55' W 093°20'2 8.1
2018-Apr-14 21:00N 29°56' W 093°20'4 8.2
2018-Apr-14 20:30N 30°00' W 093°20'4 8.3
2018-Apr-14 20:00N 30°04' W 093°20'2 4.0
2018-Apr-14 19:30N 30°05' W 093°18'1 1.4
2018-Apr-14 19:00N 30°05' W 093°17'0 0.5
2018-Apr-14 18:30N 30°05' W 093°17'3 5.9
2018-Apr-14 18:00N 30°02' W 093°15'3 5.7
2018-Apr-14 17:30N 29°60' W 093°13'4 7.1
2018-Apr-14 17:00N 29°57' W 093°10'119 2.6
2018-Apr-12 18:58N 29°34' W 090°56'3 6.4
2018-Apr-12 18:30N 29°32' W 090°53'3 6.2
2018-Apr-12 18:00N 29°32' W 090°49'3 5.9
2018-Apr-12 17:30N 29°32' W 090°46'2 4.7
2018-Apr-12 17:00N 29°34' W 090°44'1 2.9
2018-Apr-12 16:30N 29°34' W 090°43'2 4.6
2018-Apr-12 16:00N 29°31' W 090°42'3 5.8
2018-Apr-12 15:29N 29°28' W 090°43'  
Track history (hours):
 
Tides and Currents Weather Stations Pressure Air Temp Water Temp Dewpoint Dewpoint Depression Visibility Wind Speed Wind Dir Waves Ship Positions

Discovery

Owner: Central Boat Rentals, Inc, Morgan City, LA. More information available from US FCC via Universal Licensing System and Coast Guard Vessel Documentation Center.

Last reported at 2018-Apr-22 01:34 UTC. Time now 2018-Apr-27 02:48 UTC.
Position N 29°34' W 090°57'.

Length 17 m; draft 2 m.

Type: Tug. MMSI: 367697020.

Date/timePositionNaut miles runAvg speedWind from/ knotsBaromVisibWave heightAir tempDewpointWater temp
2018-Apr-22 01:34N 29°34' W 090°57'1 5.6
2018-Apr-22 01:28N 29°34' W 090°56'3 5.5
2018-Apr-22 00:54N 29°32' W 090°53'2 5.3
2018-Apr-22 00:29N 29°32' W 090°50'3 5.5
2018-Apr-22 00:00N 29°32' W 090°47'2 4.7
2018-Apr-21 23:30N 29°33' W 090°45'2 4.0
2018-Apr-21 23:00N 29°34' W 090°43'2 4.4
2018-Apr-21 22:30N 29°32' W 090°42'3 5.8
2018-Apr-21 22:00N 29°29' W 090°43'3 5.8
2018-Apr-21 21:30N 29°26' W 090°43'2 0.1
2018-Apr-21 03:08N 29°25' W 090°44'1 6.9
2018-Apr-21 03:00N 29°26' W 090°43'4 7.1
2018-Apr-21 02:30N 29°29' W 090°43'3 6.9
2018-Apr-21 02:00N 29°32' W 090°42'2 3.9
2018-Apr-21 01:30N 29°34' W 090°44'3 5.6
2018-Apr-21 01:00N 29°32' W 090°46'4 7.3
2018-Apr-21 00:30N 29°32' W 090°51'6 0.3
2018-Apr-20 01:50N 29°34' W 090°57'6 6.2
2018-Apr-20 00:55N 29°32' W 090°51'3 6.2
2018-Apr-20 00:30N 29°32' W 090°48'3 5.3
2018-Apr-20 00:00N 29°33' W 090°45'3 3.6
2018-Apr-19 23:19N 29°33' W 090°42'2 6.0
2018-Apr-19 23:00N 29°31' W 090°43'3 6.0
2018-Apr-19 22:30N 29°28' W 090°43'9 0.6
2018-Apr-19 06:38N 29°19' W 090°43'6 6.3
2018-Apr-19 05:38N 29°25' W 090°43'1 6.3
2018-Apr-19 05:30N 29°26' W 090°43'4 6.2
2018-Apr-19 04:56N 29°30' W 090°43'3 6.2
2018-Apr-19 04:30N 29°32' W 090°42'2 3.9
2018-Apr-19 04:00N 29°34' W 090°44'3 5.1
2018-Apr-19 03:30N 29°32' W 090°46'3 6.1
2018-Apr-19 02:59N 29°32' W 090°49'  
2018-Apr-15 05:28N 29°56' W 093°01'3 6.7
2018-Apr-15 05:00N 29°56' W 093°05'3 6.6
2018-Apr-15 04:30N 29°56' W 093°09'3 6.2
2018-Apr-15 04:00N 29°58' W 093°11'3 6.5
2018-Apr-15 03:30N 30°01' W 093°14'2 4.0
2018-Apr-15 03:00N 30°02' W 093°15'3 5.3
2018-Apr-15 02:30N 30°05' W 093°17'2 4.0
2018-Apr-15 02:00N 30°06' W 093°18'0 0.9
2018-Apr-15 01:30N 30°06' W 093°19'3 5.3
2018-Apr-15 01:00N 30°04' W 093°20'2 4.3
2018-Apr-15 00:30N 30°01' W 093°20'3 6.0
2018-Apr-15 00:00N 29°58' W 093°20'3 6.1
2018-Apr-14 23:30N 29°55' W 093°20'3 6.0
2018-Apr-14 23:00N 29°52' W 093°21'2 1.3
2018-Apr-14 21:12N 29°55' W 093°20'2 8.1
2018-Apr-14 21:00N 29°56' W 093°20'4 8.2
2018-Apr-14 20:30N 30°00' W 093°20'4 8.3
2018-Apr-14 20:00N 30°04' W 093°20'2 4.0
2018-Apr-14 19:30N 30°05' W 093°18'1 1.4
2018-Apr-14 19:00N 30°05' W 093°17'0 0.5
2018-Apr-14 18:30N 30°05' W 093°17'3 5.9
2018-Apr-14 18:00N 30°02' W 093°15'3 5.7
2018-Apr-14 17:30N 29°60' W 093°13'4 7.1
2018-Apr-14 17:00N 29°57' W 093°10'119 2.6
2018-Apr-12 18:58N 29°34' W 090°56'3 6.4
2018-Apr-12 18:30N 29°32' W 090°53'3 6.2
2018-Apr-12 18:00N 29°32' W 090°49'3 5.9
2018-Apr-12 17:30N 29°32' W 090°46'2 4.7
2018-Apr-12 17:00N 29°34' W 090°44'1 2.9
2018-Apr-12 16:30N 29°34' W 090°43'2 4.6
2018-Apr-12 16:00N 29°31' W 090°42'3 5.8
2018-Apr-12 15:29N 29°28' W 090°43'  

Dump ship's entire track history